sensor_id;sensor_type;location;lat;lon;timestamp;temperature;humidity
49765;DHT22;35657;51.204;-4.130;2023-11-21T00:00:13;11.60;99.90
49765;DHT22;35657;51.204;-4.130;2023-11-21T00:02:38;11.60;99.90
49765;DHT22;35657;51.204;-4.130;2023-11-21T00:05:12;11.60;99.90
49765;DHT22;35657;51.204;-4.130;2023-11-21T00:07:39;11.50;99.90
49765;DHT22;35657;51.204;-4.130;2023-11-21T00:10:05;11.60;99.90
49765;DHT22;35657;51.204;-4.130;2023-11-21T00:12:31;11.60;99.90
49765;DHT22;35657;51.204;-4.130;2023-11-21T00:15:07;11.60;99.90
49765;DHT22;35657;51.204;-4.130;2023-11-21T00:17:41;11.60;99.90
49765;DHT22;35657;51.204;-4.130;2023-11-21T00:20:08;11.60;99.90
49765;DHT22;35657;51.204;-4.130;2023-11-21T00:22:34;11.70;99.90
49765;DHT22;35657;51.204;-4.130;2023-11-21T00:24:59;11.70;99.90
49765;DHT22;35657;51.204;-4.130;2023-11-21T00:27:25;11.70;99.90
49765;DHT22;35657;51.204;-4.130;2023-11-21T00:29:51;11.60;99.90
49765;DHT22;35657;51.204;-4.130;2023-11-21T00:32:16;11.60;99.90
49765;DHT22;35657;51.204;-4.130;2023-11-21T00:34:42;12.40;99.90
49765;DHT22;35657;51.204;-4.130;2023-11-21T00:37:07;11.70;99.90
49765;DHT22;35657;51.204;-4.130;2023-11-21T00:39:33;11.70;99.90
49765;DHT22;35657;51.204;-4.130;2023-11-21T00:42:00;11.70;99.90
49765;DHT22;35657;51.204;-4.130;2023-11-21T00:44:26;11.70;99.90
49765;DHT22;35657;51.204;-4.130;2023-11-21T00:46:51;11.70;99.90
49765;DHT22;35657;51.204;-4.130;2023-11-21T00:49:17;11.70;99.90
49765;DHT22;35657;51.204;-4.130;2023-11-21T00:51:43;11.70;99.90
49765;DHT22;35657;51.204;-4.130;2023-11-21T00:54:08;11.70;99.90
49765;DHT22;35657;51.204;-4.130;2023-11-21T00:56:34;11.70;99.90
49765;DHT22;35657;51.204;-4.130;2023-11-21T00:58:59;11.70;99.90
49765;DHT22;35657;51.204;-4.130;2023-11-21T01:01:25;11.70;99.90
49765;DHT22;35657;51.204;-4.130;2023-11-21T01:03:50;11.70;99.90
49765;DHT22;35657;51.204;-4.130;2023-11-21T01:06:16;11.60;99.90
49765;DHT22;35657;51.204;-4.130;2023-11-21T01:08:43;11.60;99.90
49765;DHT22;35657;51.204;-4.130;2023-11-21T01:11:09;11.70;99.90
49765;DHT22;35657;51.204;-4.130;2023-11-21T01:13:37;11.70;99.90
49765;DHT22;35657;51.204;-4.130;2023-11-21T01:16:02;11.70;99.90
49765;DHT22;35657;51.204;-4.130;2023-11-21T01:18:31;11.60;99.90
49765;DHT22;35657;51.204;-4.130;2023-11-21T01:20:57;11.70;99.90
49765;DHT22;35657;51.204;-4.130;2023-11-21T01:23:22;11.70;99.90
49765;DHT22;35657;51.204;-4.130;2023-11-21T01:25:48;11.70;99.90
49765;DHT22;35657;51.204;-4.130;2023-11-21T01:28:14;11.70;99.90
49765;DHT22;35657;51.204;-4.130;2023-11-21T01:30:39;11.70;99.90
49765;DHT22;35657;51.204;-4.130;2023-11-21T01:33:05;11.70;99.90
49765;DHT22;35657;51.204;-4.130;2023-11-21T01:35:31;11.70;99.90
49765;DHT22;35657;51.204;-4.130;2023-11-21T01:37:56;11.70;99.90
49765;DHT22;35657;51.204;-4.130;2023-11-21T01:40:22;11.70;99.90
49765;DHT22;35657;51.204;-4.130;2023-11-21T01:42:47;11.70;99.90
49765;DHT22;35657;51.204;-4.130;2023-11-21T01:45:13;11.70;99.90
49765;DHT22;35657;51.204;-4.130;2023-11-21T01:47:40;11.70;99.90
49765;DHT22;35657;51.204;-4.130;2023-11-21T01:50:09;11.70;99.90
49765;DHT22;35657;51.204;-4.130;2023-11-21T01:52:38;11.70;99.90
49765;DHT22;35657;51.204;-4.130;2023-11-21T01:55:05;11.70;99.90
49765;DHT22;35657;51.204;-4.130;2023-11-21T01:57:31;11.70;99.90
49765;DHT22;35657;51.204;-4.130;2023-11-21T01:59:57;11.70;99.90
49765;DHT22;35657;51.204;-4.130;2023-11-21T02:02:24;11.70;99.90
49765;DHT22;35657;51.204;-4.130;2023-11-21T02:04:49;11.70;99.90
49765;DHT22;35657;51.204;-4.130;2023-11-21T02:07:15;11.70;99.90
49765;DHT22;35657;51.204;-4.130;2023-11-21T02:09:40;11.70;99.90
49765;DHT22;35657;51.204;-4.130;2023-11-21T02:12:07;11.70;99.90
49765;DHT22;35657;51.204;-4.130;2023-11-21T02:14:35;11.70;99.90
49765;DHT22;35657;51.204;-4.130;2023-11-21T02:17:02;11.70;99.90
49765;DHT22;35657;51.204;-4.130;2023-11-21T02:19:28;11.70;99.90
49765;DHT22;35657;51.204;-4.130;2023-11-21T02:21:58;11.70;99.90
49765;DHT22;35657;51.204;-4.130;2023-11-21T02:24:30;11.60;99.90
49765;DHT22;35657;51.204;-4.130;2023-11-21T02:26:56;11.60;99.90
49765;DHT22;35657;51.204;-4.130;2023-11-21T02:29:21;11.60;99.90
49765;DHT22;35657;51.204;-4.130;2023-11-21T02:31:48;11.60;99.90
49765;DHT22;35657;51.204;-4.130;2023-11-21T02:34:16;11.60;99.90
49765;DHT22;35657;51.204;-4.130;2023-11-21T02:36:42;11.60;99.90
49765;DHT22;35657;51.204;-4.130;2023-11-21T02:39:08;11.60;99.90
49765;DHT22;35657;51.204;-4.130;2023-11-21T02:41:33;11.60;99.90
49765;DHT22;35657;51.204;-4.130;2023-11-21T02:44:00;11.60;99.90
49765;DHT22;35657;51.204;-4.130;2023-11-21T02:46:25;11.60;99.90
49765;DHT22;35657;51.204;-4.130;2023-11-21T02:48:51;11.60;99.90
49765;DHT22;35657;51.204;-4.130;2023-11-21T02:51:19;11.60;99.90
49765;DHT22;35657;51.204;-4.130;2023-11-21T02:53:44;11.60;99.90
49765;DHT22;35657;51.204;-4.130;2023-11-21T02:56:12;11.50;99.90
49765;DHT22;35657;51.204;-4.130;2023-11-21T02:58:38;11.50;99.90
49765;DHT22;35657;51.204;-4.130;2023-11-21T03:01:04;11.50;99.90
49765;DHT22;35657;51.204;-4.130;2023-11-21T03:03:30;11.50;99.90
49765;DHT22;35657;51.204;-4.130;2023-11-21T03:05:56;11.50;99.90
49765;DHT22;35657;51.204;-4.130;2023-11-21T03:08:22;11.50;99.90
49765;DHT22;35657;51.204;-4.130;2023-11-21T03:10:47;11.50;99.90
49765;DHT22;35657;51.204;-4.130;2023-11-21T03:13:13;11.50;99.90
49765;DHT22;35657;51.204;-4.130;2023-11-21T03:15:38;11.50;99.90
49765;DHT22;35657;51.204;-4.130;2023-11-21T03:18:04;11.50;99.90
49765;DHT22;35657;51.204;-4.130;2023-11-21T03:20:30;11.50;99.90
49765;DHT22;35657;51.204;-4.130;2023-11-21T03:22:55;11.50;99.90
49765;DHT22;35657;51.204;-4.130;2023-11-21T03:25:21;11.50;99.90
49765;DHT22;35657;51.204;-4.130;2023-11-21T03:27:49;11.50;99.90
49765;DHT22;35657;51.204;-4.130;2023-11-21T03:30:14;11.60;99.90
49765;DHT22;35657;51.204;-4.130;2023-11-21T03:32:40;11.50;99.90
49765;DHT22;35657;51.204;-4.130;2023-11-21T03:35:06;11.50;99.90
49765;DHT22;35657;51.204;-4.130;2023-11-21T03:37:31;11.50;99.90
49765;DHT22;35657;51.204;-4.130;2023-11-21T03:39:57;11.50;99.90
49765;DHT22;35657;51.204;-4.130;2023-11-21T03:42:23;11.50;99.90
49765;DHT22;35657;51.204;-4.130;2023-11-21T03:44:49;11.50;99.90
49765;DHT22;35657;51.204;-4.130;2023-11-21T03:47:14;11.50;99.90
49765;DHT22;35657;51.204;-4.130;2023-11-21T03:49:40;11.50;99.90
49765;DHT22;35657;51.204;-4.130;2023-11-21T03:52:05;11.40;99.90
49765;DHT22;35657;51.204;-4.130;2023-11-21T03:54:33;11.40;99.90
49765;DHT22;35657;51.204;-4.130;2023-11-21T03:56:58;11.40;99.90
49765;DHT22;35657;51.204;-4.130;2023-11-21T03:59:24;11.40;99.90
49765;DHT22;35657;51.204;-4.130;2023-11-21T04:01:50;11.40;99.90
49765;DHT22;35657;51.204;-4.130;2023-11-21T04:04:15;11.40;99.90
49765;DHT22;35657;51.204;-4.130;2023-11-21T04:06:41;11.40;99.90
49765;DHT22;35657;51.204;-4.130;2023-11-21T04:09:06;11.40;99.90
49765;DHT22;35657;51.204;-4.130;2023-11-21T04:11:32;11.40;99.90
49765;DHT22;35657;51.204;-4.130;2023-11-21T04:13:58;11.40;99.90
49765;DHT22;35657;51.204;-4.130;2023-11-21T04:16:23;11.40;99.90
49765;DHT22;35657;51.204;-4.130;2023-11-21T04:18:49;11.40;99.90
49765;DHT22;35657;51.204;-4.130;2023-11-21T04:21:14;11.50;99.90
49765;DHT22;35657;51.204;-4.130;2023-11-21T04:23:40;11.40;99.90
49765;DHT22;35657;51.204;-4.130;2023-11-21T04:26:06;11.40;99.90
49765;DHT22;35657;51.204;-4.130;2023-11-21T04:28:31;11.40;99.90
49765;DHT22;35657;51.204;-4.130;2023-11-21T04:30:57;11.50;99.90
49765;DHT22;35657;51.204;-4.130;2023-11-21T04:33:23;11.40;99.90
49765;DHT22;35657;51.204;-4.130;2023-11-21T04:35:49;11.50;99.90
49765;DHT22;35657;51.204;-4.130;2023-11-21T04:38:14;11.40;99.90
49765;DHT22;35657;51.204;-4.130;2023-11-21T04:40:40;11.40;99.90
49765;DHT22;35657;51.204;-4.130;2023-11-21T04:43:05;11.40;99.90
49765;DHT22;35657;51.204;-4.130;2023-11-21T04:45:31;11.40;99.90
49765;DHT22;35657;51.204;-4.130;2023-11-21T04:47:57;11.50;99.90
49765;DHT22;35657;51.204;-4.130;2023-11-21T04:50:22;11.40;99.90
49765;DHT22;35657;51.204;-4.130;2023-11-21T04:52:48;11.40;99.90
49765;DHT22;35657;51.204;-4.130;2023-11-21T04:55:13;11.40;99.90
49765;DHT22;35657;51.204;-4.130;2023-11-21T04:57:40;11.40;99.90
49765;DHT22;35657;51.204;-4.130;2023-11-21T05:00:07;11.40;99.90
49765;DHT22;35657;51.204;-4.130;2023-11-21T05:02:32;11.30;99.90
49765;DHT22;35657;51.204;-4.130;2023-11-21T05:05:01;11.40;99.90
49765;DHT22;35657;51.204;-4.130;2023-11-21T05:07:27;11.40;99.90
49765;DHT22;35657;51.204;-4.130;2023-11-21T05:09:55;11.30;99.90
49765;DHT22;35657;51.204;-4.130;2023-11-21T05:12:24;11.30;99.90
49765;DHT22;35657;51.204;-4.130;2023-11-21T05:14:50;11.30;99.90
49765;DHT22;35657;51.204;-4.130;2023-11-21T05:17:15;11.30;99.90
49765;DHT22;35657;51.204;-4.130;2023-11-21T05:19:41;11.30;99.90
49765;DHT22;35657;51.204;-4.130;2023-11-21T05:22:07;11.30;99.90
49765;DHT22;35657;51.204;-4.130;2023-11-21T05:24:34;11.20;99.90
49765;DHT22;35657;51.204;-4.130;2023-11-21T05:27:00;11.20;99.90
49765;DHT22;35657;51.204;-4.130;2023-11-21T05:29:25;11.20;99.90
49765;DHT22;35657;51.204;-4.130;2023-11-21T05:31:51;11.30;99.90
49765;DHT22;35657;51.204;-4.130;2023-11-21T05:34:18;11.20;99.90
49765;DHT22;35657;51.204;-4.130;2023-11-21T05:36:44;11.20;99.90
49765;DHT22;35657;51.204;-4.130;2023-11-21T05:39:11;11.20;99.90
49765;DHT22;35657;51.204;-4.130;2023-11-21T05:41:36;11.20;99.90
49765;DHT22;35657;51.204;-4.130;2023-11-21T05:44:02;11.20;99.90
49765;DHT22;35657;51.204;-4.130;2023-11-21T05:46:27;11.20;99.90
49765;DHT22;35657;51.204;-4.130;2023-11-21T05:48:53;11.20;99.90
49765;DHT22;35657;51.204;-4.130;2023-11-21T05:51:20;11.30;99.90
49765;DHT22;35657;51.204;-4.130;2023-11-21T05:53:45;11.20;99.90
49765;DHT22;35657;51.204;-4.130;2023-11-21T05:56:11;11.20;99.90
49765;DHT22;35657;51.204;-4.130;2023-11-21T05:58:38;11.20;99.90
49765;DHT22;35657;51.204;-4.130;2023-11-21T06:01:05;11.20;99.90
49765;DHT22;35657;51.204;-4.130;2023-11-21T06:03:32;11.20;99.90
49765;DHT22;35657;51.204;-4.130;2023-11-21T06:05:58;11.30;99.90
49765;DHT22;35657;51.204;-4.130;2023-11-21T06:08:24;11.20;99.90
49765;DHT22;35657;51.204;-4.130;2023-11-21T06:10:50;11.20;99.90
49765;DHT22;35657;51.204;-4.130;2023-11-21T06:13:15;11.20;99.90
49765;DHT22;35657;51.204;-4.130;2023-11-21T06:15:41;11.20;99.90
49765;DHT22;35657;51.204;-4.130;2023-11-21T06:18:07;11.20;99.90
49765;DHT22;35657;51.204;-4.130;2023-11-21T06:20:35;11.20;99.90
49765;DHT22;35657;51.204;-4.130;2023-11-21T06:23:02;11.20;99.90
49765;DHT22;35657;51.204;-4.130;2023-11-21T06:25:29;11.20;99.90
49765;DHT22;35657;51.204;-4.130;2023-11-21T06:27:54;11.20;99.90
49765;DHT22;35657;51.204;-4.130;2023-11-21T06:30:20;11.10;99.90
49765;DHT22;35657;51.204;-4.130;2023-11-21T06:32:47;11.20;99.90
49765;DHT22;35657;51.204;-4.130;2023-11-21T06:35:12;11.20;99.90
49765;DHT22;35657;51.204;-4.130;2023-11-21T06:37:38;11.10;99.90
49765;DHT22;35657;51.204;-4.130;2023-11-21T06:40:04;11.10;99.90
49765;DHT22;35657;51.204;-4.130;2023-11-21T06:42:30;11.10;99.90
49765;DHT22;35657;51.204;-4.130;2023-11-21T06:44:56;11.00;99.90
49765;DHT22;35657;51.204;-4.130;2023-11-21T06:47:24;11.00;99.90
49765;DHT22;35657;51.204;-4.130;2023-11-21T06:49:55;11.10;99.90
49765;DHT22;35657;51.204;-4.130;2023-11-21T06:52:20;11.10;99.90
49765;DHT22;35657;51.204;-4.130;2023-11-21T06:54:47;11.00;99.90
49765;DHT22;35657;51.204;-4.130;2023-11-21T06:57:15;11.10;99.90
49765;DHT22;35657;51.204;-4.130;2023-11-21T06:59:40;11.10;99.90
49765;DHT22;35657;51.204;-4.130;2023-11-21T07:02:06;11.00;99.90
49765;DHT22;35657;51.204;-4.130;2023-11-21T07:04:35;11.00;99.90
49765;DHT22;35657;51.204;-4.130;2023-11-21T07:07:02;11.00;99.90
49765;DHT22;35657;51.204;-4.130;2023-11-21T07:09:28;11.00;99.90
49765;DHT22;35657;51.204;-4.130;2023-11-21T07:11:53;11.00;99.90
49765;DHT22;35657;51.204;-4.130;2023-11-21T07:14:19;11.00;99.90
49765;DHT22;35657;51.204;-4.130;2023-11-21T07:16:45;11.00;99.90
49765;DHT22;35657;51.204;-4.130;2023-11-21T07:19:11;11.00;99.90
49765;DHT22;35657;51.204;-4.130;2023-11-21T07:21:37;11.00;99.90
49765;DHT22;35657;51.204;-4.130;2023-11-21T07:24:03;11.00;99.90
49765;DHT22;35657;51.204;-4.130;2023-11-21T07:26:29;11.00;99.90
49765;DHT22;35657;51.204;-4.130;2023-11-21T07:28:55;11.00;99.90
49765;DHT22;35657;51.204;-4.130;2023-11-21T07:31:24;11.00;99.90
49765;DHT22;35657;51.204;-4.130;2023-11-21T07:33:50;11.00;99.90
49765;DHT22;35657;51.204;-4.130;2023-11-21T07:36:16;11.00;99.90
49765;DHT22;35657;51.204;-4.130;2023-11-21T07:38:43;11.00;99.90
49765;DHT22;35657;51.204;-4.130;2023-11-21T07:41:09;11.00;99.90
49765;DHT22;35657;51.204;-4.130;2023-11-21T07:43:35;11.00;99.90
49765;DHT22;35657;51.204;-4.130;2023-11-21T07:46:01;11.00;99.90
49765;DHT22;35657;51.204;-4.130;2023-11-21T07:48:28;11.00;99.90
49765;DHT22;35657;51.204;-4.130;2023-11-21T07:50:54;11.00;99.90
49765;DHT22;35657;51.204;-4.130;2023-11-21T07:53:19;11.00;99.90
49765;DHT22;35657;51.204;-4.130;2023-11-21T07:55:45;11.00;99.90
49765;DHT22;35657;51.204;-4.130;2023-11-21T07:58:12;11.00;99.90
49765;DHT22;35657;51.204;-4.130;2023-11-21T08:00:38;11.00;99.90
49765;DHT22;35657;51.204;-4.130;2023-11-21T08:03:04;11.00;99.90
49765;DHT22;35657;51.204;-4.130;2023-11-21T08:05:31;11.00;99.90
49765;DHT22;35657;51.204;-4.130;2023-11-21T08:07:57;11.00;99.90
49765;DHT22;35657;51.204;-4.130;2023-11-21T08:10:22;11.00;99.90
49765;DHT22;35657;51.204;-4.130;2023-11-21T08:12:48;10.90;99.90
49765;DHT22;35657;51.204;-4.130;2023-11-21T08:15:15;11.00;99.90
49765;DHT22;35657;51.204;-4.130;2023-11-21T08:17:41;11.00;99.90
49765;DHT22;35657;51.204;-4.130;2023-11-21T08:20:07;10.90;99.90
49765;DHT22;35657;51.204;-4.130;2023-11-21T08:22:33;11.00;99.90
49765;DHT22;35657;51.204;-4.130;2023-11-21T08:24:59;11.00;99.90
49765;DHT22;35657;51.204;-4.130;2023-11-21T08:27:25;11.00;99.90
49765;DHT22;35657;51.204;-4.130;2023-11-21T08:29:50;10.90;99.90
49765;DHT22;35657;51.204;-4.130;2023-11-21T08:32:17;10.90;99.90
49765;DHT22;35657;51.204;-4.130;2023-11-21T08:34:43;10.90;99.90
49765;DHT22;35657;51.204;-4.130;2023-11-21T08:37:10;10.90;99.90
49765;DHT22;35657;51.204;-4.130;2023-11-21T08:39:39;11.00;99.90
49765;DHT22;35657;51.204;-4.130;2023-11-21T08:42:06;11.00;99.90
49765;DHT22;35657;51.204;-4.130;2023-11-21T08:44:31;11.00;99.90
49765;DHT22;35657;51.204;-4.130;2023-11-21T08:46:57;10.90;99.90
49765;DHT22;35657;51.204;-4.130;2023-11-21T08:49:22;10.90;99.90
49765;DHT22;35657;51.204;-4.130;2023-11-21T08:51:48;11.00;99.90
49765;DHT22;35657;51.204;-4.130;2023-11-21T08:54:14;10.90;99.90
49765;DHT22;35657;51.204;-4.130;2023-11-21T08:56:41;11.00;99.90
49765;DHT22;35657;51.204;-4.130;2023-11-21T08:59:08;10.90;99.90
49765;DHT22;35657;51.204;-4.130;2023-11-21T09:01:34;10.90;99.90
49765;DHT22;35657;51.204;-4.130;2023-11-21T09:03:59;10.90;99.90
49765;DHT22;35657;51.204;-4.130;2023-11-21T09:06:25;10.90;99.90
49765;DHT22;35657;51.204;-4.130;2023-11-21T09:08:50;10.90;99.90
49765;DHT22;35657;51.204;-4.130;2023-11-21T09:11:16;10.90;99.90
49765;DHT22;35657;51.204;-4.130;2023-11-21T09:13:42;10.90;99.90
49765;DHT22;35657;51.204;-4.130;2023-11-21T09:16:08;10.90;99.90
49765;DHT22;35657;51.204;-4.130;2023-11-21T09:18:34;10.90;99.90
49765;DHT22;35657;51.204;-4.130;2023-11-21T09:20:59;10.90;99.90
49765;DHT22;35657;51.204;-4.130;2023-11-21T09:23:25;10.90;99.90
49765;DHT22;35657;51.204;-4.130;2023-11-21T09:25:50;10.90;99.90
49765;DHT22;35657;51.204;-4.130;2023-11-21T09:28:17;10.90;99.90
49765;DHT22;35657;51.204;-4.130;2023-11-21T09:30:43;10.90;99.90
49765;DHT22;35657;51.204;-4.130;2023-11-21T09:33:09;10.90;99.90
49765;DHT22;35657;51.204;-4.130;2023-11-21T09:35:38;11.00;99.90
49765;DHT22;35657;51.204;-4.130;2023-11-21T09:38:04;11.00;99.90
49765;DHT22;35657;51.204;-4.130;2023-11-21T09:40:36;11.00;99.90
49765;DHT22;35657;51.204;-4.130;2023-11-21T09:43:06;11.10;99.90
49765;DHT22;35657;51.204;-4.130;2023-11-21T09:45:35;11.10;99.90
49765;DHT22;35657;51.204;-4.130;2023-11-21T09:48:02;11.10;99.90
49765;DHT22;35657;51.204;-4.130;2023-11-21T09:50:27;11.10;99.90
49765;DHT22;35657;51.204;-4.130;2023-11-21T09:55:32;11.10;99.90
49765;DHT22;35657;51.204;-4.130;2023-11-21T09:58:02;11.10;99.90
49765;DHT22;35657;51.204;-4.130;2023-11-21T10:00:28;11.00;99.90
49765;DHT22;35657;51.204;-4.130;2023-11-21T10:02:54;11.00;99.90
49765;DHT22;35657;51.204;-4.130;2023-11-21T10:05:22;11.00;99.90
49765;DHT22;35657;51.204;-4.130;2023-11-21T10:07:48;11.00;99.90
49765;DHT22;35657;51.204;-4.130;2023-11-21T10:10:14;10.90;99.90
49765;DHT22;35657;51.204;-4.130;2023-11-21T10:12:42;11.00;99.90
49765;DHT22;35657;51.204;-4.130;2023-11-21T10:15:09;10.90;99.90
49765;DHT22;35657;51.204;-4.130;2023-11-21T10:17:37;10.90;99.90
49765;DHT22;35657;51.204;-4.130;2023-11-21T10:20:08;10.90;99.90
49765;DHT22;35657;51.204;-4.130;2023-11-21T10:22:38;10.90;99.90
49765;DHT22;35657;51.204;-4.130;2023-11-21T10:25:04;10.90;99.90
49765;DHT22;35657;51.204;-4.130;2023-11-21T10:27:33;10.90;99.90
49765;DHT22;35657;51.204;-4.130;2023-11-21T10:30:00;10.90;99.90
49765;DHT22;35657;51.204;-4.130;2023-11-21T10:32:29;10.90;99.90
49765;DHT22;35657;51.204;-4.130;2023-11-21T10:34:58;10.90;99.90
49765;DHT22;35657;51.204;-4.130;2023-11-21T10:37:25;10.90;99.90
49765;DHT22;35657;51.204;-4.130;2023-11-21T10:39:59;10.90;99.90
49765;DHT22;35657;51.204;-4.130;2023-11-21T10:42:24;10.90;99.90
49765;DHT22;35657;51.204;-4.130;2023-11-21T10:44:50;11.00;99.90
49765;DHT22;35657;51.204;-4.130;2023-11-21T10:47:16;11.00;99.90
49765;DHT22;35657;51.204;-4.130;2023-11-21T10:49:44;11.00;99.90
49765;DHT22;35657;51.204;-4.130;2023-11-21T10:52:10;11.00;99.90
49765;DHT22;35657;51.204;-4.130;2023-11-21T10:54:46;11.00;99.90
49765;DHT22;35657;51.204;-4.130;2023-11-21T10:57:11;11.00;99.90
49765;DHT22;35657;51.204;-4.130;2023-11-21T10:59:40;11.10;99.90
49765;DHT22;35657;51.204;-4.130;2023-11-21T11:02:40;11.10;99.90
49765;DHT22;35657;51.204;-4.130;2023-11-21T11:05:00;11.10;99.90
49765;DHT22;35657;51.204;-4.130;2023-11-21T11:07:26;11.20;99.90
49765;DHT22;35657;51.204;-4.130;2023-11-21T11:09:53;11.20;99.90
49765;DHT22;35657;51.204;-4.130;2023-11-21T11:12:20;11.10;99.90
49765;DHT22;35657;51.204;-4.130;2023-11-21T11:14:46;11.20;99.90
49765;DHT22;35657;51.204;-4.130;2023-11-21T11:17:11;11.20;99.90
49765;DHT22;35657;51.204;-4.130;2023-11-21T11:19:39;11.20;99.90
49765;DHT22;35657;51.204;-4.130;2023-11-21T11:22:08;11.30;99.90
49765;DHT22;35657;51.204;-4.130;2023-11-21T11:32:38;11.30;99.90
49765;DHT22;35657;51.204;-4.130;2023-11-21T11:35:16;11.30;99.90
49765;DHT22;35657;51.204;-4.130;2023-11-21T11:37:43;11.40;99.90
49765;DHT22;35657;51.204;-4.130;2023-11-21T11:40:10;11.40;99.90
49765;DHT22;35657;51.204;-4.130;2023-11-21T11:42:36;11.50;99.90
49765;DHT22;35657;51.204;-4.130;2023-11-21T11:45:02;11.50;99.90
49765;DHT22;35657;51.204;-4.130;2023-11-21T11:47:42;11.60;99.90
49765;DHT22;35657;51.204;-4.130;2023-11-21T11:50:09;11.50;99.90
49765;DHT22;35657;51.204;-4.130;2023-11-21T11:52:40;11.60;99.90
49765;DHT22;35657;51.204;-4.130;2023-11-21T11:55:06;11.60;99.90
49765;DHT22;35657;51.204;-4.130;2023-11-21T11:57:33;11.70;99.90
49765;DHT22;35657;51.204;-4.130;2023-11-21T12:02:50;11.70;99.90
49765;DHT22;35657;51.204;-4.130;2023-11-21T12:05:17;11.70;99.90
49765;DHT22;35657;51.204;-4.130;2023-11-21T12:10:15;11.70;99.90
49765;DHT22;35657;51.204;-4.130;2023-11-21T12:12:44;11.70;99.90
49765;DHT22;35657;51.204;-4.130;2023-11-21T12:15:10;11.80;99.90
49765;DHT22;35657;51.204;-4.130;2023-11-21T12:17:37;11.80;99.90
49765;DHT22;35657;51.204;-4.130;2023-11-21T12:20:04;11.80;99.90
49765;DHT22;35657;51.204;-4.130;2023-11-21T12:22:31;11.70;99.90
49765;DHT22;35657;51.204;-4.130;2023-11-21T12:24:57;11.70;99.90
49765;DHT22;35657;51.204;-4.130;2023-11-21T12:27:22;11.70;99.90
49765;DHT22;35657;51.204;-4.130;2023-11-21T12:29:48;11.70;99.90
49765;DHT22;35657;51.204;-4.130;2023-11-21T12:32:13;11.60;99.90
49765;DHT22;35657;51.204;-4.130;2023-11-21T12:34:40;11.60;99.90
49765;DHT22;35657;51.204;-4.130;2023-11-21T12:37:06;11.60;99.90
49765;DHT22;35657;51.204;-4.130;2023-11-21T12:39:31;11.60;99.90
49765;DHT22;35657;51.204;-4.130;2023-11-21T12:41:57;11.60;99.90
49765;DHT22;35657;51.204;-4.130;2023-11-21T12:44:23;11.60;99.90
49765;DHT22;35657;51.204;-4.130;2023-11-21T12:46:49;11.50;99.90
49765;DHT22;35657;51.204;-4.130;2023-11-21T12:49:15;11.50;99.90
49765;DHT22;35657;51.204;-4.130;2023-11-21T12:51:46;11.50;99.90
49765;DHT22;35657;51.204;-4.130;2023-11-21T12:54:12;11.50;99.90
49765;DHT22;35657;51.204;-4.130;2023-11-21T12:56:40;11.50;99.90
49765;DHT22;35657;51.204;-4.130;2023-11-21T12:59:06;11.50;99.90
49765;DHT22;35657;51.204;-4.130;2023-11-21T13:01:31;11.50;99.90
49765;DHT22;35657;51.204;-4.130;2023-11-21T13:03:57;11.60;99.90
49765;DHT22;35657;51.204;-4.130;2023-11-21T13:06:27;11.50;99.90
49765;DHT22;35657;51.204;-4.130;2023-11-21T13:08:58;11.50;99.90
49765;DHT22;35657;51.204;-4.130;2023-11-21T13:11:24;11.50;99.90
49765;DHT22;35657;51.204;-4.130;2023-11-21T13:13:52;11.50;99.90
49765;DHT22;35657;51.204;-4.130;2023-11-21T13:16:18;11.50;99.90
49765;DHT22;35657;51.204;-4.130;2023-11-21T13:18:45;11.50;99.90
49765;DHT22;35657;51.204;-4.130;2023-11-21T13:21:11;11.60;99.90
49765;DHT22;35657;51.204;-4.130;2023-11-21T13:23:42;11.60;99.90
49765;DHT22;35657;51.204;-4.130;2023-11-21T13:26:08;11.70;99.90
49765;DHT22;35657;51.204;-4.130;2023-11-21T13:28:34;11.60;99.90
49765;DHT22;35657;51.204;-4.130;2023-11-21T13:31:00;11.60;99.90
49765;DHT22;35657;51.204;-4.130;2023-11-21T13:33:35;11.60;99.90
49765;DHT22;35657;51.204;-4.130;2023-11-21T13:36:04;11.60;99.90
49765;DHT22;35657;51.204;-4.130;2023-11-21T13:38:40;11.50;99.90
49765;DHT22;35657;51.204;-4.130;2023-11-21T13:41:09;11.50;99.90
49765;DHT22;35657;51.204;-4.130;2023-11-21T13:43:35;11.50;99.90
49765;DHT22;35657;51.204;-4.130;2023-11-21T13:46:02;11.50;99.90
49765;DHT22;35657;51.204;-4.130;2023-11-21T13:48:38;11.50;99.90
49765;DHT22;35657;51.204;-4.130;2023-11-21T13:51:11;11.50;99.90
49765;DHT22;35657;51.204;-4.130;2023-11-21T13:53:45;11.50;99.90
49765;DHT22;35657;51.204;-4.130;2023-11-21T13:56:13;11.50;99.90
49765;DHT22;35657;51.204;-4.130;2023-11-21T13:58:43;11.50;99.90
49765;DHT22;35657;51.204;-4.130;2023-11-21T14:01:17;11.50;99.90
49765;DHT22;35657;51.204;-4.130;2023-11-21T14:03:57;11.50;99.90
49765;DHT22;35657;51.204;-4.130;2023-11-21T14:06:34;11.50;99.90
49765;DHT22;35657;51.204;-4.130;2023-11-21T14:09:05;11.50;99.90
49765;DHT22;35657;51.204;-4.130;2023-11-21T14:11:32;11.50;99.90
49765;DHT22;35657;51.204;-4.130;2023-11-21T14:14:00;11.40;99.90
49765;DHT22;35657;51.204;-4.130;2023-11-21T14:16:27;11.40;99.90
49765;DHT22;35657;51.204;-4.130;2023-11-21T14:18:53;11.40;99.90
49765;DHT22;35657;51.204;-4.130;2023-11-21T14:21:26;11.40;99.90
49765;DHT22;35657;51.204;-4.130;2023-11-21T14:23:52;11.40;99.90
49765;DHT22;35657;51.204;-4.130;2023-11-21T14:26:20;11.40;99.90
49765;DHT22;35657;51.204;-4.130;2023-11-21T14:28:46;11.40;99.90
49765;DHT22;35657;51.204;-4.130;2023-11-21T14:31:14;11.50;99.90
49765;DHT22;35657;51.204;-4.130;2023-11-21T14:33:43;11.40;99.90
49765;DHT22;35657;51.204;-4.130;2023-11-21T14:36:09;11.40;99.90
49765;DHT22;35657;51.204;-4.130;2023-11-21T14:38:38;11.40;99.90
49765;DHT22;35657;51.204;-4.130;2023-11-21T14:41:05;11.40;99.90
49765;DHT22;35657;51.204;-4.130;2023-11-21T14:43:34;11.40;99.90
49765;DHT22;35657;51.204;-4.130;2023-11-21T14:46:00;11.40;99.90
49765;DHT22;35657;51.204;-4.130;2023-11-21T14:48:27;11.40;99.90
49765;DHT22;35657;51.204;-4.130;2023-11-21T14:51:08;11.40;99.90
49765;DHT22;35657;51.204;-4.130;2023-11-21T14:53:56;11.40;99.90
49765;DHT22;35657;51.204;-4.130;2023-11-21T14:56:32;11.40;99.90
49765;DHT22;35657;51.204;-4.130;2023-11-21T14:59:00;11.40;99.90
49765;DHT22;35657;51.204;-4.130;2023-11-21T15:01:37;11.30;99.90
49765;DHT22;35657;51.204;-4.130;2023-11-21T15:04:21;11.40;99.90
49765;DHT22;35657;51.204;-4.130;2023-11-21T15:07:04;11.40;99.90
49765;DHT22;35657;51.204;-4.130;2023-11-21T15:09:30;11.40;99.90
49765;DHT22;35657;51.204;-4.130;2023-11-21T15:11:55;11.40;99.90
49765;DHT22;35657;51.204;-4.130;2023-11-21T15:14:28;11.50;99.90
49765;DHT22;35657;51.204;-4.130;2023-11-21T15:16:57;11.40;99.90
49765;DHT22;35657;51.204;-4.130;2023-11-21T15:19:25;11.40;99.90
49765;DHT22;35657;51.204;-4.130;2023-11-21T15:21:51;11.30;99.90
49765;DHT22;35657;51.204;-4.130;2023-11-21T15:24:17;11.30;99.90
49765;DHT22;35657;51.204;-4.130;2023-11-21T15:26:42;11.30;99.90
49765;DHT22;35657;51.204;-4.130;2023-11-21T15:29:08;11.30;99.90